Iris Victoria — V7TS8 — position and weather

sailwx.info

Track history (hours):
 
Tides and Currents Weather Stations Pressure Air Temp Water Temp Dewpoint Dewpoint Depression Visibility Wind Speed Wind Dir Waves Ship Positions

Iris Victoria

Last reported at 2017-May-28 05:44 UTC. Time now 2017-May-28 18:39 UTC.
Position N 29°44' W 095°10'.

Length 228 m; draft 12.8 m.

Type: Tanker. MMSI: 538003876.

Date/timePositionNaut miles runAvg speedWind from/ knotsBaromVisibWave heightAir tempDewpointWater temp
2017-May-28 05:44N 29°44' W 095°10'0 0.1
2017-May-28 05:30N 29°44' W 095°10'0 0.5
2017-May-28 05:00N 29°44' W 095°10'2 3.8
2017-May-28 04:30N 29°44' W 095°07'1 2.9
2017-May-28 04:00N 29°45' W 095°06'2 3.0
2017-May-28 03:30N 29°46' W 095°04'2 4.1
2017-May-28 03:01N 29°44' W 095°03'0 0.0
2017-May-26 11:39N 29°44' W 095°03'0 0.5
2017-May-26 11:30N 29°44' W 095°03'1 2.3
2017-May-26 11:00N 29°44' W 095°02'3 6.9
2017-May-26 10:30N 29°41' W 094°59'5 9.5
2017-May-26 10:00N 29°37' W 094°57'510.6
2017-May-26 09:30N 29°32' W 094°54'611.2
2017-May-26 09:00N 29°28' W 094°51'612.6
2017-May-26 08:30N 29°22' W 094°48'812.2
2017-May-26 07:52N 29°19' W 094°39'511.1
2017-May-26 07:27N 29°17' W 094°35'3 7.7
2017-May-26 07:00N 29°14' W 094°32'4 7.2
2017-May-26 06:30N 29°11' W 094°35'0 0.5
2017-May-26 05:44N 29°12' W 094°35'0 0.0
2017-May-26 05:29N 29°12' W 094°35'0 0.0
2017-May-26 04:56N 29°12' W 094°35'0 0.0
2017-May-26 04:29N 29°12' W 094°35'0 0.0
2017-May-26 03:59N 29°12' W 094°35'12 0.3
2017-May-24 16:36N 29°21' W 094°44'111.9
2017-May-24 16:30N 29°21' W 094°45'510.6
2017-May-24 16:00N 29°24' W 094°49'510.5
2017-May-24 15:30N 29°29' W 094°52'510.1
2017-May-24 15:00N 29°33' W 094°55'5 9.8
2017-May-24 14:30N 29°38' W 094°58'7 7.4
2017-May-24 13:30N 29°44' W 095°02'1 0.0
2017-May-23 13:14N 29°44' W 095°03'0 0.0
2017-May-23 13:00N 29°44' W 095°03'0 0.5
2017-May-23 12:30N 29°44' W 095°03'2 3.8
2017-May-23 12:00N 29°43' W 095°01'4 7.4
2017-May-23 11:30N 29°40' W 094°58'4 7.4
2017-May-23 11:00N 29°36' W 094°57'510.5
2017-May-23 10:30N 29°32' W 094°54'611.0
2017-May-23 10:00N 29°27' W 094°51'810.8
2017-May-23 09:17N 29°21' W 094°46'  
2017-May-19 07:09N 25°41' W 079°30'210.5
2017-May-19 06:58N 25°43' W 079°30'910.5
2017-May-19 06:08N 25°52' W 079°30'110.4
2017-May-19 06:00N 25°53' W 079°30'1510.8
2017-May-19 04:34N 26°06' W 079°22'112.7
2017-May-19 04:30N 26°07' W 079°21'613.0
2017-May-19 04:00N 26°13' W 079°18'  
Track history (hours):
 
Tides and Currents Weather Stations Pressure Air Temp Water Temp Dewpoint Dewpoint Depression Visibility Wind Speed Wind Dir Waves Ship Positions

Iris Victoria

Last reported at 2017-May-28 05:44 UTC. Time now 2017-May-28 18:39 UTC.
Position N 29°44' W 095°10'.

Length 228 m; draft 12.8 m.

Type: Tanker. MMSI: 538003876.

Date/timePositionNaut miles runAvg speedWind from/ knotsBaromVisibWave heightAir tempDewpointWater temp
2017-May-28 05:44N 29°44' W 095°10'0 0.1
2017-May-28 05:30N 29°44' W 095°10'0 0.5
2017-May-28 05:00N 29°44' W 095°10'2 3.8
2017-May-28 04:30N 29°44' W 095°07'1 2.9
2017-May-28 04:00N 29°45' W 095°06'2 3.0
2017-May-28 03:30N 29°46' W 095°04'2 4.1
2017-May-28 03:01N 29°44' W 095°03'0 0.0
2017-May-26 11:39N 29°44' W 095°03'0 0.5
2017-May-26 11:30N 29°44' W 095°03'1 2.3
2017-May-26 11:00N 29°44' W 095°02'3 6.9
2017-May-26 10:30N 29°41' W 094°59'5 9.5
2017-May-26 10:00N 29°37' W 094°57'510.6
2017-May-26 09:30N 29°32' W 094°54'611.2
2017-May-26 09:00N 29°28' W 094°51'612.6
2017-May-26 08:30N 29°22' W 094°48'812.2
2017-May-26 07:52N 29°19' W 094°39'511.1
2017-May-26 07:27N 29°17' W 094°35'3 7.7
2017-May-26 07:00N 29°14' W 094°32'4 7.2
2017-May-26 06:30N 29°11' W 094°35'0 0.5
2017-May-26 05:44N 29°12' W 094°35'0 0.0
2017-May-26 05:29N 29°12' W 094°35'0 0.0
2017-May-26 04:56N 29°12' W 094°35'0 0.0
2017-May-26 04:29N 29°12' W 094°35'0 0.0
2017-May-26 03:59N 29°12' W 094°35'12 0.3
2017-May-24 16:36N 29°21' W 094°44'111.9
2017-May-24 16:30N 29°21' W 094°45'510.6
2017-May-24 16:00N 29°24' W 094°49'510.5
2017-May-24 15:30N 29°29' W 094°52'510.1
2017-May-24 15:00N 29°33' W 094°55'5 9.8
2017-May-24 14:30N 29°38' W 094°58'7 7.4
2017-May-24 13:30N 29°44' W 095°02'1 0.0
2017-May-23 13:14N 29°44' W 095°03'0 0.0
2017-May-23 13:00N 29°44' W 095°03'0 0.5
2017-May-23 12:30N 29°44' W 095°03'2 3.8
2017-May-23 12:00N 29°43' W 095°01'4 7.4
2017-May-23 11:30N 29°40' W 094°58'4 7.4
2017-May-23 11:00N 29°36' W 094°57'510.5
2017-May-23 10:30N 29°32' W 094°54'611.0
2017-May-23 10:00N 29°27' W 094°51'810.8
2017-May-23 09:17N 29°21' W 094°46'  
2017-May-19 07:09N 25°41' W 079°30'210.5
2017-May-19 06:58N 25°43' W 079°30'910.5
2017-May-19 06:08N 25°52' W 079°30'110.4
2017-May-19 06:00N 25°53' W 079°30'1510.8
2017-May-19 04:34N 26°06' W 079°22'112.7
2017-May-19 04:30N 26°07' W 079°21'613.0
2017-May-19 04:00N 26°13' W 079°18'  

Dump ship's entire track history